Terminal Aerodrome Forecast
Issued by NWS

Home | Current Version | Previous Version | Text Only | Print | Product List | Glossary On
Versions: 1 2 3 4 5 6 7 8 9 10 11 12 13 14
554
FTUS43 KMQT 052338
TAFIWD
TAF
KIWD 052338Z 0600/0624 22008KT P6SM SCT150
     FM061000 22004KT P6SM SKC
     FM061500 24008KT P6SM SKC
     FM061900 24012G17KT P6SM SKC=

USA.gov is the U.S. government's official web portal to all federal, state and local government web resources and services.